createdAt,value
2022-10-16T00:00:23.805Z,17.80
2022-10-16T00:02:56.711Z,16.20
2022-10-16T00:05:30.032Z,14.65
2022-10-16T00:08:04.530Z,16.27
2022-10-16T00:10:37.945Z,17.75
2022-10-16T00:13:10.887Z,19.35
2022-10-16T00:15:45.166Z,18.90
2022-10-16T00:18:17.916Z,18.42
2022-10-16T00:20:51.006Z,17.87
2022-10-16T00:23:24.638Z,16.00
2022-10-16T00:25:59.695Z,19.45
2022-10-16T00:28:33.195Z,14.18
2022-10-16T00:31:12.075Z,15.75
2022-10-16T00:33:45.239Z,14.95
2022-10-16T00:36:21.789Z,17.07
2022-10-16T00:38:57.491Z,15.28
2022-10-16T00:41:31.719Z,13.25
2022-10-16T00:44:08.379Z,14.33
2022-10-16T00:46:45.740Z,19.05
2022-10-16T00:49:20.395Z,12.47
2022-10-16T00:51:55.357Z,14.65
2022-10-16T00:54:32.989Z,15.55
2022-10-16T00:57:08.736Z,13.10
2022-10-16T00:59:44.221Z,14.93
2022-10-16T01:02:19.298Z,13.60
2022-10-16T01:07:38.561Z,15.72
2022-10-16T01:10:52.393Z,16.82
2022-10-16T01:13:38.802Z,14.03
2022-10-16T01:16:18.429Z,15.38
2022-10-16T01:19:03.453Z,16.15
2022-10-16T01:21:42.839Z,13.13
2022-10-16T01:24:26.042Z,15.25
2022-10-16T01:27:19.359Z,12.93
2022-10-16T01:30:21.941Z,15.35
2022-10-16T01:32:59.529Z,14.95
2022-10-16T01:35:47.708Z,17.05
2022-10-16T01:38:27.828Z,14.85
2022-10-16T01:41:11.395Z,13.30
2022-10-16T01:43:54.183Z,12.95
2022-10-16T01:46:28.152Z,17.77
2022-10-16T01:49:02.970Z,12.33
2022-10-16T01:51:36.115Z,13.03
2022-10-16T01:54:11.046Z,14.13
2022-10-16T01:56:44.954Z,16.65
2022-10-16T01:59:21.967Z,14.40
2022-10-16T02:01:59.376Z,16.15
2022-10-16T02:04:39.327Z,11.28
2022-10-16T02:07:12.429Z,19.90
2022-10-16T02:09:46.800Z,12.53
2022-10-16T02:12:33.371Z,12.40
2022-10-16T02:15:06.873Z,15.68
2022-10-16T02:17:41.115Z,13.32
2022-10-16T02:20:14.543Z,11.78
2022-10-16T02:22:49.840Z,15.40
2022-10-16T02:25:33.058Z,16.87
2022-10-16T02:28:10.273Z,17.05
2022-10-16T02:30:56.034Z,15.13
2022-10-16T02:33:31.218Z,13.22
2022-10-16T02:36:04.523Z,14.70
2022-10-16T02:38:38.074Z,13.05
2022-10-16T02:41:14.443Z,16.57
2022-10-16T02:43:47.414Z,13.93
2022-10-16T02:46:21.114Z,14.60
2022-10-16T02:48:53.797Z,15.23
2022-10-16T02:51:26.963Z,23.87
2022-10-16T02:53:59.916Z,15.55
2022-10-16T02:56:33.170Z,14.47
2022-10-16T02:59:06.103Z,14.43
2022-10-16T03:01:39.589Z,16.87
2022-10-16T03:04:12.441Z,15.53
2022-10-16T03:06:45.548Z,14.65
2022-10-16T03:09:19.564Z,13.45
2022-10-16T03:11:53.463Z,17.07
2022-10-16T03:16:59.861Z,16.23
2022-10-16T03:22:06.141Z,17.42
2022-10-16T03:24:39.690Z,22.07
2022-10-16T03:27:12.738Z,19.70
2022-10-16T03:29:46.326Z,15.10
2022-10-16T03:32:19.630Z,15.05
2022-10-16T03:34:54.305Z,15.50
2022-10-16T03:37:27.620Z,19.67
2022-10-16T03:40:01.266Z,14.70
2022-10-16T03:42:34.477Z,17.02
2022-10-16T03:45:08.540Z,19.25
2022-10-16T03:50:13.794Z,20.15
2022-10-16T03:55:19.702Z,19.45
2022-10-16T03:57:52.763Z,20.30
2022-10-16T04:00:25.666Z,17.85
2022-10-16T04:02:58.476Z,20.30
2022-10-16T04:05:31.693Z,17.37
2022-10-16T04:08:05.290Z,24.70
2022-10-16T04:10:38.786Z,27.50
2022-10-16T04:13:12.408Z,27.65
2022-10-16T04:15:47.394Z,23.87
2022-10-16T04:18:20.401Z,18.82
2022-10-16T04:20:53.784Z,31.17
2022-10-16T04:23:27.226Z,17.87
2022-10-16T04:25:59.996Z,24.60
2022-10-16T04:28:33.522Z,25.20
2022-10-16T04:31:10.295Z,25.55
2022-10-16T04:33:47.301Z,21.62
2022-10-16T04:36:21.564Z,17.75
2022-10-16T04:38:54.911Z,20.27
2022-10-16T04:41:28.154Z,22.65
2022-10-16T04:44:01.096Z,17.15
2022-10-16T04:46:33.883Z,18.27
2022-10-16T04:49:06.765Z,19.42
2022-10-16T04:51:40.181Z,21.25
2022-10-16T04:54:13.723Z,20.27
2022-10-16T04:56:48.030Z,24.02
2022-10-16T04:59:22.011Z,22.77
2022-10-16T05:01:54.811Z,21.60
2022-10-16T05:04:27.875Z,27.93
2022-10-16T05:07:00.933Z,23.60
2022-10-16T05:09:34.514Z,19.37
2022-10-16T05:12:07.755Z,18.33
2022-10-16T05:14:41.380Z,20.82
2022-10-16T05:17:15.006Z,22.60
2022-10-16T05:19:48.912Z,25.70
2022-10-16T05:22:22.179Z,19.45
2022-10-16T05:24:55.177Z,16.75
2022-10-16T05:27:28.777Z,23.60
2022-10-16T05:30:02.290Z,20.77
2022-10-16T05:32:35.954Z,27.50
2022-10-16T05:35:12.561Z,24.80
2022-10-16T05:37:45.529Z,24.98
2022-10-16T05:40:19.113Z,15.72
2022-10-16T05:42:52.429Z,21.77
2022-10-16T05:45:25.565Z,25.32
2022-10-16T05:47:58.820Z,17.70
2022-10-16T05:50:31.631Z,18.80
2022-10-16T05:53:04.783Z,23.85
2022-10-16T05:55:38.987Z,20.23
2022-10-16T05:58:12.128Z,30.17
2022-10-16T06:00:45.030Z,21.80
2022-10-16T06:03:18.806Z,22.65
2022-10-16T06:05:52.711Z,16.42
2022-10-16T06:08:26.525Z,17.98
2022-10-16T06:11:07.742Z,15.95
2022-10-16T06:13:42.843Z,20.35
2022-10-16T06:16:17.484Z,20.62
2022-10-16T06:21:28.119Z,15.95
2022-10-16T06:24:02.163Z,20.12
2022-10-16T06:26:35.278Z,19.25
2022-10-16T06:29:10.260Z,20.25
2022-10-16T06:31:43.686Z,19.52
2022-10-16T06:34:17.188Z,22.40
2022-10-16T06:36:50.163Z,21.40
2022-10-16T06:39:23.453Z,23.03
2022-10-16T06:41:56.945Z,26.12
2022-10-16T06:44:31.539Z,19.05
2022-10-16T06:47:05.176Z,17.50
2022-10-16T06:49:38.256Z,20.17
2022-10-16T06:52:11.611Z,21.35
2022-10-16T06:54:44.401Z,16.20
2022-10-16T06:57:17.309Z,15.88
2022-10-16T06:59:55.123Z,11.15
2022-10-16T07:02:25.776Z,13.68
2022-10-16T07:04:58.876Z,19.57
2022-10-16T07:07:32.775Z,13.65
2022-10-16T07:10:07.238Z,12.13
2022-10-16T07:12:41.168Z,9.73
2022-10-16T07:15:15.488Z,9.40
2022-10-16T07:17:48.207Z,12.55
2022-10-16T07:20:22.428Z,23.83
2022-10-16T07:25:27.954Z,14.80
2022-10-16T07:28:00.734Z,15.43
2022-10-16T07:30:35.547Z,17.48
2022-10-16T07:35:40.197Z,10.68
2022-10-16T07:38:13.021Z,10.28
2022-10-16T07:40:46.396Z,11.18
2022-10-16T07:43:19.567Z,9.33
2022-10-16T07:45:53.781Z,10.20
2022-10-16T07:48:33.045Z,9.93
2022-10-16T07:51:08.421Z,11.90
2022-10-16T07:53:41.865Z,14.38
2022-10-16T07:56:17.103Z,13.32
2022-10-16T07:58:51.436Z,23.55
2022-10-16T08:01:24.160Z,8.33
2022-10-16T08:03:56.995Z,10.53
2022-10-16T08:06:30.097Z,8.78
2022-10-16T08:09:03.037Z,17.92
2022-10-16T08:11:36.314Z,31.90
2022-10-16T08:14:09.659Z,13.05
2022-10-16T08:16:43.046Z,10.23
2022-10-16T08:19:17.021Z,9.20
2022-10-16T08:21:53.118Z,11.57
2022-10-16T08:24:25.801Z,16.23
2022-10-16T08:26:59.157Z,12.93
2022-10-16T08:29:32.206Z,10.30
2022-10-16T08:32:07.590Z,11.35
2022-10-16T08:34:40.413Z,10.85
2022-10-16T08:37:14.994Z,13.83
2022-10-16T08:39:49.281Z,12.88
2022-10-16T08:42:35.673Z,7.95
2022-10-16T08:45:34.589Z,8.78
2022-10-16T08:48:20.752Z,12.35
2022-10-16T08:50:54.999Z,10.15
2022-10-16T08:53:32.709Z,12.37
2022-10-16T08:56:06.887Z,10.93
2022-10-16T08:58:39.842Z,12.13
2022-10-16T09:01:17.511Z,7.17
2022-10-16T09:04:21.056Z,6.53
2022-10-16T09:07:03.842Z,8.45
2022-10-16T09:09:53.189Z,7.92
2022-10-16T09:12:33.624Z,19.05
2022-10-16T09:15:35.521Z,19.90
2022-10-16T09:18:35.718Z,9.25
2022-10-16T09:21:30.825Z,11.20
2022-10-16T09:24:18.090Z,7.55
2022-10-16T09:26:51.136Z,5.65
2022-10-16T09:29:26.527Z,12.28
2022-10-16T09:32:02.923Z,14.50
2022-10-16T09:34:38.440Z,12.07
2022-10-16T09:37:23.730Z,11.75
2022-10-16T09:39:58.183Z,10.72
2022-10-16T09:42:37.594Z,18.20
2022-10-16T09:45:23.688Z,14.80
2022-10-16T09:47:57.866Z,14.58
2022-10-16T09:50:31.544Z,12.03
2022-10-16T09:53:13.842Z,15.78
2022-10-16T09:55:55.269Z,29.48
2022-10-16T09:58:28.028Z,14.28
2022-10-16T10:01:01.912Z,7.03
2022-10-16T10:03:41.658Z,10.63
2022-10-16T10:06:27.989Z,10.15
2022-10-16T10:09:20.464Z,9.90
2022-10-16T10:12:04.697Z,9.10
2022-10-16T10:14:45.218Z,12.20
2022-10-16T10:17:23.953Z,10.90
2022-10-16T10:20:03.049Z,8.93
2022-10-16T10:22:46.535Z,9.48
2022-10-16T10:25:47.172Z,7.62
2022-10-16T10:28:33.383Z,13.90
2022-10-16T10:31:38.282Z,12.18
2022-10-16T10:34:39.399Z,12.18
2022-10-16T10:37:25.956Z,9.35
2022-10-16T10:40:35.965Z,8.58
2022-10-16T10:43:42.391Z,7.25
2022-10-16T10:46:20.204Z,19.05
2022-10-16T10:49:25.945Z,30.77
2022-10-16T10:52:30.254Z,43.85
2022-10-16T10:55:29.189Z,40.08
2022-10-16T10:58:38.777Z,28.00
2022-10-16T11:01:21.364Z,12.65
2022-10-16T11:04:13.035Z,12.23
2022-10-16T11:06:52.986Z,11.80
2022-10-16T11:09:42.524Z,13.58
2022-10-16T11:12:44.930Z,10.32
2022-10-16T11:15:31.885Z,8.88
2022-10-16T11:18:37.074Z,19.75
2022-10-16T11:23:49.130Z,12.07
2022-10-16T11:26:32.577Z,15.25
2022-10-16T11:29:06.908Z,20.20
2022-10-16T11:31:44.640Z,12.05
2022-10-16T11:34:31.771Z,8.60
2022-10-16T11:37:35.258Z,8.43
2022-10-16T11:40:35.115Z,9.45
2022-10-16T11:43:19.468Z,9.13
2022-10-16T11:45:59.458Z,8.98
2022-10-16T11:49:06.206Z,16.82
2022-10-16T11:51:47.458Z,15.78
2022-10-16T11:54:43.922Z,12.20
2022-10-16T11:57:30.423Z,12.70
2022-10-16T12:00:32.160Z,13.43
2022-10-16T12:03:30.997Z,9.95
2022-10-16T12:06:39.425Z,12.55
2022-10-16T12:09:17.585Z,12.78
2022-10-16T12:11:51.022Z,10.38
2022-10-16T12:15:04.039Z,11.08
2022-10-16T12:17:38.040Z,14.18
2022-10-16T12:20:32.720Z,10.08
2022-10-16T12:23:08.087Z,14.23
2022-10-16T12:25:44.422Z,15.40
2022-10-16T12:28:26.793Z,15.13
2022-10-16T12:31:03.910Z,10.30
2022-10-16T12:33:47.752Z,13.53
2022-10-16T12:36:35.748Z,10.13
2022-10-16T12:39:08.518Z,14.68
2022-10-16T12:41:41.590Z,11.18
2022-10-16T12:44:27.691Z,7.75
2022-10-16T12:47:01.119Z,20.08
2022-10-16T12:49:39.531Z,14.63
2022-10-16T12:52:39.504Z,15.35
2022-10-16T12:55:17.084Z,15.08
2022-10-16T12:58:12.584Z,13.35
2022-10-16T13:00:54.427Z,18.30
2022-10-16T13:04:08.348Z,18.17
2022-10-16T13:07:04.096Z,12.88
2022-10-16T13:10:06.564Z,17.48
2022-10-16T13:13:02.844Z,13.48
2022-10-16T13:15:55.557Z,11.12
2022-10-16T13:18:41.562Z,9.93
2022-10-16T13:21:29.959Z,16.50
2022-10-16T13:24:28.994Z,14.73
2022-10-16T13:27:24.873Z,15.43
2022-10-16T13:30:06.146Z,17.98
2022-10-16T13:32:38.881Z,13.88
2022-10-16T13:35:28.730Z,16.17
2022-10-16T13:38:20.619Z,14.20
2022-10-16T13:41:06.275Z,14.50
2022-10-16T13:43:45.790Z,11.12
2022-10-16T13:46:21.748Z,13.53
2022-10-16T13:49:07.377Z,11.78
2022-10-16T13:51:41.407Z,16.57
2022-10-16T13:54:14.691Z,24.87
2022-10-16T13:56:47.830Z,18.00
2022-10-16T13:59:29.964Z,27.00
2022-10-16T14:02:10.585Z,32.10
2022-10-16T14:04:44.630Z,24.67
2022-10-16T14:07:24.393Z,23.07
2022-10-16T14:09:59.036Z,25.20
2022-10-16T14:12:33.111Z,23.62
2022-10-16T14:15:09.994Z,24.67
2022-10-16T14:17:46.094Z,25.05
2022-10-16T14:20:20.023Z,25.97
2022-10-16T14:23:03.631Z,27.00
2022-10-16T14:25:36.697Z,23.22
2022-10-16T14:28:21.326Z,29.20
2022-10-16T14:30:59.049Z,21.82
2022-10-16T14:33:35.846Z,25.25
2022-10-16T14:36:19.345Z,28.52
2022-10-16T14:39:05.530Z,32.98
2022-10-16T14:41:51.044Z,32.30
2022-10-16T14:44:30.941Z,40.65
2022-10-16T14:47:16.480Z,44.48
2022-10-16T14:49:49.370Z,61.92
2022-10-16T14:52:22.510Z,57.50
2022-10-16T14:54:57.219Z,59.93
2022-10-16T14:57:31.749Z,81.12
2022-10-16T15:00:06.655Z,67.95
2022-10-16T15:02:39.831Z,63.60
2022-10-16T15:05:28.775Z,62.33
2022-10-16T15:08:02.177Z,66.75
2022-10-16T15:10:39.832Z,62.35
2022-10-16T15:13:16.112Z,55.40
2022-10-16T15:15:53.313Z,44.13
2022-10-16T15:18:26.344Z,42.13
2022-10-16T15:20:59.763Z,38.38
2022-10-16T15:23:33.033Z,52.53
2022-10-16T15:26:06.178Z,69.82
2022-10-16T15:28:39.274Z,66.20
2022-10-16T15:31:12.950Z,54.10
2022-10-16T15:33:47.933Z,66.87
2022-10-16T15:36:38.153Z,45.92
2022-10-16T15:39:21.427Z,40.95
2022-10-16T15:41:54.811Z,35.75
2022-10-16T15:44:29.371Z,29.63
2022-10-16T15:47:05.107Z,33.63
2022-10-16T15:49:38.204Z,30.25
2022-10-16T15:52:11.995Z,28.12
2022-10-16T15:54:50.402Z,34.10
2022-10-16T15:57:20.458Z,42.40
2022-10-16T16:02:28.694Z,62.23
2022-10-16T16:05:03.022Z,68.40
2022-10-16T16:07:41.871Z,49.53
2022-10-16T16:10:16.114Z,48.45
2022-10-16T16:12:54.071Z,35.52
2022-10-16T16:15:28.422Z,33.55
2022-10-16T16:18:02.979Z,28.60
2022-10-16T16:20:37.760Z,25.02
2022-10-16T16:23:10.956Z,22.58
2022-10-16T16:25:45.371Z,20.12
2022-10-16T16:28:18.095Z,20.70
2022-10-16T16:30:53.712Z,24.87
2022-10-16T16:33:26.711Z,34.25
2022-10-16T16:36:05.013Z,31.73
2022-10-16T16:38:37.828Z,23.27
2022-10-16T16:41:24.092Z,28.02
2022-10-16T16:43:58.279Z,25.15
2022-10-16T16:46:32.051Z,22.10
2022-10-16T16:49:05.674Z,19.87
2022-10-16T16:51:40.870Z,20.82
2022-10-16T16:54:15.186Z,19.42
2022-10-16T16:59:23.659Z,17.75
2022-10-16T17:04:30.615Z,26.48
2022-10-16T17:07:04.483Z,20.90
2022-10-16T17:09:38.040Z,19.77
2022-10-16T17:12:11.408Z,18.17
2022-10-16T17:14:49.168Z,21.05
2022-10-16T17:17:21.978Z,16.75
2022-10-16T17:19:55.527Z,16.10
2022-10-16T17:22:28.632Z,18.50
2022-10-16T17:25:04.174Z,15.85
2022-10-16T17:27:37.851Z,17.65
2022-10-16T17:30:11.923Z,19.85
2022-10-16T17:32:47.187Z,17.40
2022-10-16T17:35:21.790Z,17.67
2022-10-16T17:37:55.854Z,21.53
2022-10-16T17:40:31.399Z,15.53
2022-10-16T17:43:04.748Z,20.35
2022-10-16T17:45:43.233Z,14.00
2022-10-16T17:48:16.143Z,15.30
2022-10-16T17:50:49.450Z,12.30
2022-10-16T17:53:22.847Z,15.30
2022-10-16T17:55:57.487Z,12.00
2022-10-16T17:58:32.212Z,13.20
2022-10-16T18:03:39.072Z,13.72
2022-10-16T18:06:13.806Z,14.45
2022-10-16T18:08:48.377Z,13.05
2022-10-16T18:11:23.755Z,17.30
2022-10-16T18:13:59.175Z,12.37
2022-10-16T18:19:05.177Z,11.63
2022-10-16T18:21:38.048Z,13.85
2022-10-16T18:24:11.759Z,16.97
2022-10-16T18:26:45.666Z,11.93
2022-10-16T18:29:19.992Z,14.68
2022-10-16T18:31:53.013Z,14.63
2022-10-16T18:34:27.478Z,18.00
2022-10-16T18:37:00.566Z,13.20
2022-10-16T18:39:34.578Z,12.68
2022-10-16T18:42:07.780Z,9.73
2022-10-16T18:44:40.922Z,13.88
2022-10-16T18:47:14.016Z,13.28
2022-10-16T18:49:49.140Z,18.35
2022-10-16T18:52:23.835Z,11.57
2022-10-16T18:54:58.554Z,12.80
2022-10-16T18:57:32.507Z,12.18
2022-10-16T19:00:06.079Z,12.20
2022-10-16T19:02:39.777Z,14.65
2022-10-16T19:05:15.616Z,10.70
2022-10-16T19:07:49.378Z,11.60
2022-10-16T19:10:22.596Z,10.65
2022-10-16T19:12:56.204Z,11.40
2022-10-16T19:15:29.110Z,11.08
2022-10-16T19:18:02.429Z,11.85
2022-10-16T19:20:35.774Z,7.40
2022-10-16T19:23:08.760Z,9.90
2022-10-16T19:25:41.997Z,14.15
2022-10-16T19:28:15.459Z,10.70
2022-10-16T19:30:49.231Z,12.60
2022-10-16T19:33:22.476Z,10.80
2022-10-16T19:35:55.451Z,10.70
2022-10-16T19:38:28.239Z,19.70
2022-10-16T19:41:10.534Z,15.88
2022-10-16T19:43:44.321Z,11.10
2022-10-16T19:46:23.469Z,9.63
2022-10-16T19:49:02.783Z,10.70
2022-10-16T19:51:37.555Z,10.18
2022-10-16T19:54:14.955Z,12.33
2022-10-16T19:56:47.764Z,12.78
2022-10-16T19:59:20.945Z,11.70
2022-10-16T20:01:54.270Z,19.13
2022-10-16T20:04:27.582Z,19.93
2022-10-16T20:07:00.662Z,24.07
2022-10-16T20:09:35.716Z,22.17
2022-10-16T20:12:08.546Z,15.68
2022-10-16T20:14:42.503Z,20.32
2022-10-16T20:17:15.639Z,16.45
2022-10-16T20:19:48.553Z,12.15
2022-10-16T20:22:21.952Z,11.50
2022-10-16T20:24:55.792Z,9.80
2022-10-16T20:27:29.980Z,12.28
2022-10-16T20:30:03.351Z,14.30
2022-10-16T20:32:36.918Z,12.45
2022-10-16T20:35:10.708Z,9.28
2022-10-16T20:37:45.049Z,12.50
2022-10-16T20:42:50.894Z,15.50
2022-10-16T20:45:24.450Z,11.38
2022-10-16T20:47:57.346Z,10.45
2022-10-16T20:50:33.824Z,17.23
2022-10-16T20:53:06.929Z,9.78
2022-10-16T20:55:40.212Z,10.85
2022-10-16T20:58:13.484Z,11.43
2022-10-16T21:00:47.028Z,11.43
2022-10-16T21:03:22.041Z,9.55
2022-10-16T21:05:57.867Z,13.65
2022-10-16T21:08:30.703Z,9.80
2022-10-16T21:11:05.294Z,12.60
2022-10-16T21:13:40.012Z,9.73
2022-10-16T21:16:14.175Z,11.55
2022-10-16T21:18:47.628Z,9.93
2022-10-16T21:21:30.760Z,10.98
2022-10-16T21:24:03.721Z,10.82
2022-10-16T21:26:36.721Z,11.85
2022-10-16T21:29:11.352Z,17.15
2022-10-16T21:31:45.612Z,15.40
2022-10-16T21:34:18.294Z,16.48
2022-10-16T21:36:51.628Z,15.08
2022-10-16T21:39:24.696Z,15.43
2022-10-16T21:41:57.933Z,14.03
2022-10-16T21:44:30.794Z,13.08
2022-10-16T21:47:04.919Z,13.32
2022-10-16T21:49:38.477Z,18.87
2022-10-16T21:52:12.005Z,15.65
2022-10-16T21:54:44.740Z,11.63
2022-10-16T21:57:17.712Z,11.35
2022-10-16T21:59:54.748Z,9.93
2022-10-16T22:02:27.632Z,10.30
2022-10-16T22:05:00.898Z,12.15
2022-10-16T22:07:35.266Z,10.50
2022-10-16T22:10:09.383Z,11.00
2022-10-16T22:12:42.091Z,11.28
2022-10-16T22:15:15.382Z,12.55
2022-10-16T22:17:48.420Z,8.88
2022-10-16T22:20:21.691Z,8.13
2022-10-16T22:22:54.554Z,9.85
2022-10-16T22:25:27.307Z,9.70
2022-10-16T22:28:00.172Z,9.23
2022-10-16T22:30:33.166Z,10.70
2022-10-16T22:33:07.991Z,8.40
2022-10-16T22:35:42.678Z,11.95
2022-10-16T22:38:15.522Z,7.30
2022-10-16T22:40:48.588Z,9.00
2022-10-16T22:43:21.524Z,7.65
2022-10-16T22:45:54.357Z,6.45
2022-10-16T22:48:27.302Z,12.35
2022-10-16T22:51:00.047Z,8.35
2022-10-16T22:53:34.255Z,15.28
2022-10-16T22:56:07.385Z,11.68
2022-10-16T22:58:40.429Z,12.58
2022-10-16T23:01:20.462Z,10.63
2022-10-16T23:03:53.213Z,10.15
2022-10-16T23:06:26.484Z,10.20
2022-10-16T23:09:02.917Z,12.03
2022-10-16T23:11:37.286Z,13.38
2022-10-16T23:14:10.257Z,11.57
2022-10-16T23:16:43.204Z,9.53
2022-10-16T23:19:17.030Z,10.25
2022-10-16T23:21:51.610Z,11.12
2022-10-16T23:24:25.041Z,10.75
2022-10-16T23:26:57.976Z,8.03
2022-10-16T23:29:30.982Z,11.75
2022-10-16T23:32:03.875Z,8.85
2022-10-16T23:34:37.968Z,8.63
2022-10-16T23:37:10.860Z,9.85
2022-10-16T23:39:44.501Z,7.33
2022-10-16T23:42:17.222Z,10.93
2022-10-16T23:44:50.324Z,9.73
2022-10-16T23:47:24.139Z,7.28
2022-10-16T23:49:57.172Z,10.05
2022-10-16T23:52:30.039Z,8.08
2022-10-16T23:55:03.034Z,6.87
2022-10-16T23:57:36.174Z,9.68
